sensor_id;sensor_type;location;lat;lon;timestamp;P1;durP1;ratioP1;P2;durP2;ratioP2
16963;SDS011;8598;50.508;10.436;2023-08-24T00:00:44;7.43;;;5.57;;
16963;SDS011;8598;50.508;10.436;2023-08-24T00:03:11;10.63;;;6.00;;
16963;SDS011;8598;50.508;10.436;2023-08-24T00:05:38;7.60;;;6.50;;
16963;SDS011;8598;50.508;10.436;2023-08-24T00:08:06;8.07;;;6.00;;
16963;SDS011;8598;50.508;10.436;2023-08-24T00:10:33;8.53;;;6.53;;
16963;SDS011;8598;50.508;10.436;2023-08-24T00:13:02;7.83;;;5.17;;
16963;SDS011;8598;50.508;10.436;2023-08-24T00:15:29;7.03;;;6.10;;
16963;SDS011;8598;50.508;10.436;2023-08-24T00:17:56;8.20;;;6.73;;
16963;SDS011;8598;50.508;10.436;2023-08-24T00:20:23;8.47;;;6.67;;
16963;SDS011;8598;50.508;10.436;2023-08-24T00:22:50;9.03;;;6.70;;
16963;SDS011;8598;50.508;10.436;2023-08-24T00:25:17;7.20;;;6.10;;
16963;SDS011;8598;50.508;10.436;2023-08-24T00:27:43;8.33;;;6.23;;
16963;SDS011;8598;50.508;10.436;2023-08-24T00:30:12;11.77;;;5.80;;
16963;SDS011;8598;50.508;10.436;2023-08-24T00:32:39;7.37;;;5.90;;
16963;SDS011;8598;50.508;10.436;2023-08-24T00:35:06;6.80;;;5.60;;
16963;SDS011;8598;50.508;10.436;2023-08-24T00:37:35;10.73;;;7.07;;
16963;SDS011;8598;50.508;10.436;2023-08-24T00:40:02;11.23;;;6.97;;
16963;SDS011;8598;50.508;10.436;2023-08-24T00:42:33;12.50;;;6.83;;
16963;SDS011;8598;50.508;10.436;2023-08-24T00:45:03;8.60;;;7.00;;
16963;SDS011;8598;50.508;10.436;2023-08-24T00:47:32;8.07;;;6.20;;
16963;SDS011;8598;50.508;10.436;2023-08-24T00:50:00;9.93;;;7.07;;
16963;SDS011;8598;50.508;10.436;2023-08-24T00:52:28;10.13;;;7.70;;
16963;SDS011;8598;50.508;10.436;2023-08-24T00:54:57;7.20;;;6.10;;
16963;SDS011;8598;50.508;10.436;2023-08-24T00:57:24;7.50;;;6.57;;
16963;SDS011;8598;50.508;10.436;2023-08-24T00:59:51;9.10;;;6.27;;
16963;SDS011;8598;50.508;10.436;2023-08-24T01:02:17;10.97;;;6.30;;
16963;SDS011;8598;50.508;10.436;2023-08-24T01:04:46;11.13;;;6.83;;
16963;SDS011;8598;50.508;10.436;2023-08-24T01:07:13;7.47;;;6.67;;
16963;SDS011;8598;50.508;10.436;2023-08-24T01:09:41;7.20;;;6.40;;
16963;SDS011;8598;50.508;10.436;2023-08-24T01:12:10;8.53;;;6.70;;
16963;SDS011;8598;50.508;10.436;2023-08-24T01:14:48;7.97;;;6.53;;
16963;SDS011;8598;50.508;10.436;2023-08-24T01:17:22;9.27;;;6.83;;
16963;SDS011;8598;50.508;10.436;2023-08-24T01:19:53;6.53;;;5.93;;
16963;SDS011;8598;50.508;10.436;2023-08-24T01:22:23;8.47;;;6.80;;
16963;SDS011;8598;50.508;10.436;2023-08-24T01:25:00;7.63;;;6.83;;
16963;SDS011;8598;50.508;10.436;2023-08-24T01:27:33;7.57;;;6.43;;
16963;SDS011;8598;50.508;10.436;2023-08-24T01:30:02;8.87;;;7.17;;
16963;SDS011;8598;50.508;10.436;2023-08-24T01:32:29;9.13;;;7.60;;
16963;SDS011;8598;50.508;10.436;2023-08-24T01:34:56;11.40;;;6.83;;
16963;SDS011;8598;50.508;10.436;2023-08-24T01:37:23;7.70;;;6.93;;
16963;SDS011;8598;50.508;10.436;2023-08-24T01:39:50;7.40;;;6.60;;
16963;SDS011;8598;50.508;10.436;2023-08-24T01:42:31;8.03;;;7.00;;
16963;SDS011;8598;50.508;10.436;2023-08-24T01:45:02;10.13;;;7.20;;
16963;SDS011;8598;50.508;10.436;2023-08-24T01:47:32;10.83;;;7.13;;
16963;SDS011;8598;50.508;10.436;2023-08-24T01:50:00;11.27;;;7.80;;
16963;SDS011;8598;50.508;10.436;2023-08-24T01:52:28;10.53;;;8.07;;
16963;SDS011;8598;50.508;10.436;2023-08-24T01:54:55;11.87;;;7.63;;
16963;SDS011;8598;50.508;10.436;2023-08-24T01:57:22;8.97;;;8.00;;
16963;SDS011;8598;50.508;10.436;2023-08-24T01:59:48;9.20;;;7.97;;
16963;SDS011;8598;50.508;10.436;2023-08-24T02:02:17;12.43;;;8.10;;
16963;SDS011;8598;50.508;10.436;2023-08-24T02:04:43;11.47;;;9.07;;
16963;SDS011;8598;50.508;10.436;2023-08-24T02:07:10;11.77;;;8.77;;
16963;SDS011;8598;50.508;10.436;2023-08-24T02:09:37;16.60;;;8.87;;
16963;SDS011;8598;50.508;10.436;2023-08-24T02:12:04;11.87;;;9.33;;
16963;SDS011;8598;50.508;10.436;2023-08-24T02:14:31;8.10;;;7.20;;
16963;SDS011;8598;50.508;10.436;2023-08-24T02:16:57;9.53;;;8.33;;
16963;SDS011;8598;50.508;10.436;2023-08-24T02:19:25;14.47;;;7.27;;
16963;SDS011;8598;50.508;10.436;2023-08-24T02:21:52;9.37;;;7.17;;
16963;SDS011;8598;50.508;10.436;2023-08-24T02:24:19;7.93;;;7.13;;
16963;SDS011;8598;50.508;10.436;2023-08-24T02:26:45;9.53;;;7.50;;
16963;SDS011;8598;50.508;10.436;2023-08-24T02:29:12;8.47;;;6.90;;
16963;SDS011;8598;50.508;10.436;2023-08-24T02:31:39;7.67;;;6.87;;
16963;SDS011;8598;50.508;10.436;2023-08-24T02:34:05;7.43;;;6.73;;
16963;SDS011;8598;50.508;10.436;2023-08-24T02:36:34;9.57;;;7.27;;
16963;SDS011;8598;50.508;10.436;2023-08-24T02:39:00;8.17;;;7.00;;
16963;SDS011;8598;50.508;10.436;2023-08-24T02:41:27;11.73;;;8.23;;
16963;SDS011;8598;50.508;10.436;2023-08-24T02:43:54;9.33;;;6.90;;
16963;SDS011;8598;50.508;10.436;2023-08-24T02:46:21;7.73;;;6.73;;
16963;SDS011;8598;50.508;10.436;2023-08-24T02:48:47;14.07;;;8.40;;
16963;SDS011;8598;50.508;10.436;2023-08-24T02:51:14;8.20;;;7.27;;
16963;SDS011;8598;50.508;10.436;2023-08-24T02:53:42;9.07;;;7.43;;
16963;SDS011;8598;50.508;10.436;2023-08-24T02:56:09;10.67;;;7.87;;
16963;SDS011;8598;50.508;10.436;2023-08-24T02:58:36;10.97;;;7.17;;
16963;SDS011;8598;50.508;10.436;2023-08-24T03:01:04;8.83;;;7.37;;
16963;SDS011;8598;50.508;10.436;2023-08-24T03:03:32;13.13;;;7.50;;
16963;SDS011;8598;50.508;10.436;2023-08-24T03:05:59;12.17;;;7.13;;
16963;SDS011;8598;50.508;10.436;2023-08-24T03:08:27;13.47;;;7.93;;
16963;SDS011;8598;50.508;10.436;2023-08-24T03:10:56;9.27;;;7.57;;
16963;SDS011;8598;50.508;10.436;2023-08-24T03:13:23;10.83;;;7.27;;
16963;SDS011;8598;50.508;10.436;2023-08-24T03:15:49;8.50;;;7.60;;
16963;SDS011;8598;50.508;10.436;2023-08-24T03:18:17;12.57;;;7.27;;
16963;SDS011;8598;50.508;10.436;2023-08-24T03:20:44;9.80;;;7.43;;
16963;SDS011;8598;50.508;10.436;2023-08-24T03:23:12;8.80;;;7.23;;
16963;SDS011;8598;50.508;10.436;2023-08-24T03:25:39;11.20;;;7.53;;
16963;SDS011;8598;50.508;10.436;2023-08-24T03:28:08;10.13;;;7.77;;
16963;SDS011;8598;50.508;10.436;2023-08-24T03:30:35;8.43;;;7.37;;
16963;SDS011;8598;50.508;10.436;2023-08-24T03:33:03;13.53;;;7.27;;
16963;SDS011;8598;50.508;10.436;2023-08-24T03:35:30;8.23;;;7.03;;
16963;SDS011;8598;50.508;10.436;2023-08-24T03:37:57;12.10;;;8.40;;
16963;SDS011;8598;50.508;10.436;2023-08-24T03:40:24;10.53;;;7.67;;
16963;SDS011;8598;50.508;10.436;2023-08-24T03:42:51;10.23;;;9.17;;
16963;SDS011;8598;50.508;10.436;2023-08-24T03:45:19;13.20;;;7.67;;
16963;SDS011;8598;50.508;10.436;2023-08-24T03:47:46;12.67;;;8.00;;
16963;SDS011;8598;50.508;10.436;2023-08-24T03:50:13;12.40;;;8.33;;
16963;SDS011;8598;50.508;10.436;2023-08-24T03:52:40;11.07;;;8.33;;
16963;SDS011;8598;50.508;10.436;2023-08-24T03:55:08;11.70;;;8.03;;
16963;SDS011;8598;50.508;10.436;2023-08-24T03:57:35;9.80;;;6.90;;
16963;SDS011;8598;50.508;10.436;2023-08-24T04:00:03;10.63;;;7.80;;
16963;SDS011;8598;50.508;10.436;2023-08-24T04:02:32;9.37;;;7.20;;
16963;SDS011;8598;50.508;10.436;2023-08-24T04:04:59;10.33;;;7.80;;
16963;SDS011;8598;50.508;10.436;2023-08-24T04:07:25;11.03;;;7.00;;
16963;SDS011;8598;50.508;10.436;2023-08-24T04:09:52;10.67;;;7.27;;
16963;SDS011;8598;50.508;10.436;2023-08-24T04:12:19;9.60;;;7.20;;
16963;SDS011;8598;50.508;10.436;2023-08-24T04:14:45;10.97;;;7.83;;
16963;SDS011;8598;50.508;10.436;2023-08-24T04:17:12;8.80;;;7.90;;
16963;SDS011;8598;50.508;10.436;2023-08-24T04:19:40;8.17;;;7.40;;
16963;SDS011;8598;50.508;10.436;2023-08-24T04:22:07;10.10;;;7.20;;
16963;SDS011;8598;50.508;10.436;2023-08-24T04:24:33;11.20;;;7.83;;
16963;SDS011;8598;50.508;10.436;2023-08-24T04:27:00;8.70;;;7.80;;
16963;SDS011;8598;50.508;10.436;2023-08-24T04:29:27;11.23;;;8.43;;
16963;SDS011;8598;50.508;10.436;2023-08-24T04:31:53;14.53;;;9.13;;
16963;SDS011;8598;50.508;10.436;2023-08-24T04:34:20;8.13;;;7.40;;
16963;SDS011;8598;50.508;10.436;2023-08-24T04:36:48;14.50;;;7.63;;
16963;SDS011;8598;50.508;10.436;2023-08-24T04:39:15;7.87;;;6.93;;
16963;SDS011;8598;50.508;10.436;2023-08-24T04:41:43;11.57;;;8.17;;
16963;SDS011;8598;50.508;10.436;2023-08-24T04:44:10;8.63;;;7.70;;
16963;SDS011;8598;50.508;10.436;2023-08-24T04:46:37;8.97;;;7.30;;
16963;SDS011;8598;50.508;10.436;2023-08-24T04:49:03;8.03;;;7.23;;
16963;SDS011;8598;50.508;10.436;2023-08-24T04:51:30;10.93;;;7.07;;
16963;SDS011;8598;50.508;10.436;2023-08-24T04:53:58;11.00;;;7.17;;
16963;SDS011;8598;50.508;10.436;2023-08-24T04:56:25;6.93;;;6.27;;
16963;SDS011;8598;50.508;10.436;2023-08-24T04:58:52;8.10;;;6.00;;
16963;SDS011;8598;50.508;10.436;2023-08-24T05:01:20;8.13;;;6.20;;
16963;SDS011;8598;50.508;10.436;2023-08-24T05:03:47;10.53;;;6.40;;
16963;SDS011;8598;50.508;10.436;2023-08-24T05:06:13;15.77;;;5.60;;
16963;SDS011;8598;50.508;10.436;2023-08-24T05:08:40;28.70;;;7.07;;
16963;SDS011;8598;50.508;10.436;2023-08-24T05:11:11;117.63;;;14.97;;
16963;SDS011;8598;50.508;10.436;2023-08-24T05:13:38;147.27;;;16.57;;
16963;SDS011;8598;50.508;10.436;2023-08-24T05:16:05;81.20;;;10.60;;
16963;SDS011;8598;50.508;10.436;2023-08-24T05:18:33;60.10;;;9.90;;
16963;SDS011;8598;50.508;10.436;2023-08-24T05:21:01;47.90;;;8.70;;
16963;SDS011;8598;50.508;10.436;2023-08-24T05:23:28;27.03;;;8.00;;
16963;SDS011;8598;50.508;10.436;2023-08-24T05:25:56;21.47;;;7.43;;
16963;SDS011;8598;50.508;10.436;2023-08-24T05:28:24;14.03;;;6.60;;
16963;SDS011;8598;50.508;10.436;2023-08-24T05:30:50;9.37;;;5.97;;
16963;SDS011;8598;50.508;10.436;2023-08-24T05:33:17;10.07;;;5.73;;
16963;SDS011;8598;50.508;10.436;2023-08-24T05:35:44;6.07;;;5.47;;
16963;SDS011;8598;50.508;10.436;2023-08-24T05:38:10;7.67;;;5.37;;
16963;SDS011;8598;50.508;10.436;2023-08-24T05:40:38;6.67;;;5.33;;
16963;SDS011;8598;50.508;10.436;2023-08-24T05:43:06;6.03;;;5.43;;
16963;SDS011;8598;50.508;10.436;2023-08-24T05:45:34;8.87;;;6.70;;
16963;SDS011;8598;50.508;10.436;2023-08-24T05:48:01;10.40;;;7.23;;
16963;SDS011;8598;50.508;10.436;2023-08-24T05:50:28;6.87;;;6.27;;
16963;SDS011;8598;50.508;10.436;2023-08-24T05:52:54;8.00;;;6.60;;
16963;SDS011;8598;50.508;10.436;2023-08-24T05:55:21;6.67;;;6.07;;
16963;SDS011;8598;50.508;10.436;2023-08-24T05:57:48;10.03;;;6.83;;
16963;SDS011;8598;50.508;10.436;2023-08-24T06:00:15;9.50;;;7.13;;
16963;SDS011;8598;50.508;10.436;2023-08-24T06:02:44;11.07;;;6.50;;
16963;SDS011;8598;50.508;10.436;2023-08-24T06:05:10;7.33;;;6.10;;
16963;SDS011;8598;50.508;10.436;2023-08-24T06:07:37;6.60;;;5.90;;
16963;SDS011;8598;50.508;10.436;2023-08-24T06:10:04;7.97;;;6.77;;
16963;SDS011;8598;50.508;10.436;2023-08-24T06:12:32;7.93;;;6.53;;
16963;SDS011;8598;50.508;10.436;2023-08-24T06:14:58;6.53;;;5.90;;
16963;SDS011;8598;50.508;10.436;2023-08-24T06:17:27;9.40;;;5.77;;
16963;SDS011;8598;50.508;10.436;2023-08-24T06:19:55;7.23;;;4.83;;
16963;SDS011;8598;50.508;10.436;2023-08-24T06:22:22;9.10;;;3.93;;
16963;SDS011;8598;50.508;10.436;2023-08-24T06:24:48;7.90;;;5.17;;
16963;SDS011;8598;50.508;10.436;2023-08-24T06:27:15;10.83;;;3.73;;
16963;SDS011;8598;50.508;10.436;2023-08-24T06:29:42;7.57;;;3.60;;
16963;SDS011;8598;50.508;10.436;2023-08-24T06:32:09;6.03;;;3.50;;
16963;SDS011;8598;50.508;10.436;2023-08-24T06:34:36;5.50;;;3.40;;
16963;SDS011;8598;50.508;10.436;2023-08-24T06:37:04;5.70;;;3.90;;
16963;SDS011;8598;50.508;10.436;2023-08-24T06:39:30;6.20;;;3.77;;
16963;SDS011;8598;50.508;10.436;2023-08-24T06:41:57;8.23;;;4.23;;
16963;SDS011;8598;50.508;10.436;2023-08-24T06:44:24;5.10;;;4.60;;
16963;SDS011;8598;50.508;10.436;2023-08-24T06:46:51;6.73;;;5.13;;
16963;SDS011;8598;50.508;10.436;2023-08-24T06:49:17;9.90;;;5.90;;
16963;SDS011;8598;50.508;10.436;2023-08-24T06:51:45;8.87;;;6.33;;
16963;SDS011;8598;50.508;10.436;2023-08-24T06:54:13;10.90;;;5.93;;
16963;SDS011;8598;50.508;10.436;2023-08-24T06:56:40;15.40;;;6.67;;
16963;SDS011;8598;50.508;10.436;2023-08-24T06:59:08;10.30;;;6.47;;
16963;SDS011;8598;50.508;10.436;2023-08-24T07:01:38;11.93;;;5.50;;
16963;SDS011;8598;50.508;10.436;2023-08-24T07:04:04;6.53;;;4.80;;
16963;SDS011;8598;50.508;10.436;2023-08-24T07:06:32;4.30;;;3.90;;
16963;SDS011;8598;50.508;10.436;2023-08-24T07:08:59;11.87;;;4.03;;
16963;SDS011;8598;50.508;10.436;2023-08-24T07:11:29;5.27;;;3.17;;
16963;SDS011;8598;50.508;10.436;2023-08-24T07:13:56;7.77;;;3.57;;
16963;SDS011;8598;50.508;10.436;2023-08-24T07:16:22;8.47;;;4.13;;
16963;SDS011;8598;50.508;10.436;2023-08-24T07:18:49;9.70;;;3.50;;
16963;SDS011;8598;50.508;10.436;2023-08-24T07:21:16;11.83;;;3.53;;
16963;SDS011;8598;50.508;10.436;2023-08-24T07:23:43;5.57;;;3.20;;
16963;SDS011;8598;50.508;10.436;2023-08-24T07:26:10;5.80;;;2.97;;
16963;SDS011;8598;50.508;10.436;2023-08-24T07:28:38;12.07;;;4.10;;
16963;SDS011;8598;50.508;10.436;2023-08-24T07:31:07;8.97;;;3.50;;
16963;SDS011;8598;50.508;10.436;2023-08-24T07:33:35;8.73;;;3.70;;
16963;SDS011;8598;50.508;10.436;2023-08-24T07:36:04;7.87;;;3.10;;
16963;SDS011;8598;50.508;10.436;2023-08-24T07:38:31;5.53;;;2.80;;
16963;SDS011;8598;50.508;10.436;2023-08-24T07:40:58;3.43;;;2.43;;
16963;SDS011;8598;50.508;10.436;2023-08-24T07:43:25;7.23;;;3.17;;
16963;SDS011;8598;50.508;10.436;2023-08-24T07:45:53;7.33;;;2.70;;
16963;SDS011;8598;50.508;10.436;2023-08-24T07:48:20;4.67;;;2.70;;
16963;SDS011;8598;50.508;10.436;2023-08-24T07:50:46;5.17;;;2.97;;
16963;SDS011;8598;50.508;10.436;2023-08-24T07:53:13;4.20;;;2.90;;
16963;SDS011;8598;50.508;10.436;2023-08-24T07:55:40;4.67;;;2.67;;
16963;SDS011;8598;50.508;10.436;2023-08-24T07:58:07;5.77;;;2.80;;
16963;SDS011;8598;50.508;10.436;2023-08-24T08:00:34;6.80;;;2.90;;
16963;SDS011;8598;50.508;10.436;2023-08-24T08:03:02;5.07;;;2.27;;
16963;SDS011;8598;50.508;10.436;2023-08-24T08:05:29;4.03;;;2.40;;
16963;SDS011;8598;50.508;10.436;2023-08-24T08:07:57;6.37;;;3.03;;
16963;SDS011;8598;50.508;10.436;2023-08-24T08:10:23;7.13;;;3.10;;
16963;SDS011;8598;50.508;10.436;2023-08-24T08:12:50;3.33;;;2.50;;
16963;SDS011;8598;50.508;10.436;2023-08-24T08:15:17;6.30;;;2.97;;
16963;SDS011;8598;50.508;10.436;2023-08-24T08:17:44;5.23;;;3.10;;
16963;SDS011;8598;50.508;10.436;2023-08-24T08:20:13;8.00;;;2.83;;
16963;SDS011;8598;50.508;10.436;2023-08-24T08:22:40;4.23;;;2.73;;
16963;SDS011;8598;50.508;10.436;2023-08-24T08:25:07;6.83;;;3.33;;
16963;SDS011;8598;50.508;10.436;2023-08-24T08:27:34;3.70;;;3.03;;
16963;SDS011;8598;50.508;10.436;2023-08-24T08:30:00;11.70;;;2.93;;
16963;SDS011;8598;50.508;10.436;2023-08-24T08:32:29;9.80;;;3.53;;
16963;SDS011;8598;50.508;10.436;2023-08-24T08:34:56;3.83;;;2.87;;
16963;SDS011;8598;50.508;10.436;2023-08-24T08:37:26;6.50;;;3.40;;
16963;SDS011;8598;50.508;10.436;2023-08-24T08:39:53;7.77;;;3.80;;
16963;SDS011;8598;50.508;10.436;2023-08-24T08:42:20;8.03;;;4.17;;
16963;SDS011;8598;50.508;10.436;2023-08-24T08:44:46;8.33;;;4.07;;
16963;SDS011;8598;50.508;10.436;2023-08-24T08:47:14;9.47;;;4.00;;
16963;SDS011;8598;50.508;10.436;2023-08-24T08:49:41;26.13;;;5.40;;
16963;SDS011;8598;50.508;10.436;2023-08-24T08:52:09;19.83;;;4.73;;
16963;SDS011;8598;50.508;10.436;2023-08-24T08:54:37;17.07;;;4.90;;
16963;SDS011;8598;50.508;10.436;2023-08-24T08:57:05;23.97;;;4.73;;
16963;SDS011;8598;50.508;10.436;2023-08-24T08:59:33;8.53;;;4.03;;
16963;SDS011;8598;50.508;10.436;2023-08-24T09:02:01;8.43;;;3.90;;
16963;SDS011;8598;50.508;10.436;2023-08-24T09:04:28;5.67;;;3.47;;
16963;SDS011;8598;50.508;10.436;2023-08-24T09:06:56;7.40;;;3.57;;
16963;SDS011;8598;50.508;10.436;2023-08-24T09:09:23;9.03;;;3.50;;
16963;SDS011;8598;50.508;10.436;2023-08-24T09:11:52;8.43;;;3.90;;
16963;SDS011;8598;50.508;10.436;2023-08-24T09:14:19;10.93;;;3.80;;
16963;SDS011;8598;50.508;10.436;2023-08-24T09:16:46;6.67;;;3.60;;
16963;SDS011;8598;50.508;10.436;2023-08-24T09:19:12;7.30;;;3.90;;
16963;SDS011;8598;50.508;10.436;2023-08-24T09:21:39;7.47;;;3.07;;
16963;SDS011;8598;50.508;10.436;2023-08-24T09:24:06;10.17;;;3.60;;
16963;SDS011;8598;50.508;10.436;2023-08-24T09:26:34;9.27;;;3.33;;
16963;SDS011;8598;50.508;10.436;2023-08-24T09:29:11;11.67;;;4.00;;
16963;SDS011;8598;50.508;10.436;2023-08-24T09:31:39;8.60;;;3.83;;
16963;SDS011;8598;50.508;10.436;2023-08-24T09:34:08;8.73;;;3.93;;
16963;SDS011;8598;50.508;10.436;2023-08-24T09:36:36;11.53;;;4.20;;
16963;SDS011;8598;50.508;10.436;2023-08-24T09:39:03;10.33;;;4.60;;
16963;SDS011;8598;50.508;10.436;2023-08-24T09:41:38;7.13;;;3.60;;
16963;SDS011;8598;50.508;10.436;2023-08-24T09:44:05;7.93;;;3.70;;
16963;SDS011;8598;50.508;10.436;2023-08-24T09:46:33;8.87;;;4.10;;
16963;SDS011;8598;50.508;10.436;2023-08-24T09:49:01;6.10;;;3.80;;
16963;SDS011;8598;50.508;10.436;2023-08-24T09:51:30;6.53;;;3.87;;
16963;SDS011;8598;50.508;10.436;2023-08-24T09:53:58;12.50;;;4.03;;
16963;SDS011;8598;50.508;10.436;2023-08-24T09:56:31;10.03;;;4.30;;
16963;SDS011;8598;50.508;10.436;2023-08-24T09:59:01;7.97;;;3.73;;
16963;SDS011;8598;50.508;10.436;2023-08-24T10:01:37;10.07;;;4.30;;
16963;SDS011;8598;50.508;10.436;2023-08-24T10:04:05;15.00;;;4.60;;
16963;SDS011;8598;50.508;10.436;2023-08-24T10:06:34;8.20;;;3.80;;
16963;SDS011;8598;50.508;10.436;2023-08-24T10:09:05;11.53;;;4.07;;
16963;SDS011;8598;50.508;10.436;2023-08-24T10:11:34;10.87;;;4.40;;
16963;SDS011;8598;50.508;10.436;2023-08-24T10:14:08;14.17;;;4.90;;
16963;SDS011;8598;50.508;10.436;2023-08-24T10:16:39;5.97;;;4.20;;
16963;SDS011;8598;50.508;10.436;2023-08-24T10:19:07;4.77;;;4.10;;
16963;SDS011;8598;50.508;10.436;2023-08-24T10:21:34;12.43;;;4.70;;
16963;SDS011;8598;50.508;10.436;2023-08-24T10:24:03;9.77;;;4.40;;
16963;SDS011;8598;50.508;10.436;2023-08-24T10:26:30;8.43;;;4.50;;
16963;SDS011;8598;50.508;10.436;2023-08-24T10:28:59;7.97;;;4.20;;
16963;SDS011;8598;50.508;10.436;2023-08-24T10:31:26;8.87;;;4.13;;
16963;SDS011;8598;50.508;10.436;2023-08-24T10:33:55;11.80;;;3.63;;
16963;SDS011;8598;50.508;10.436;2023-08-24T10:36:23;6.60;;;3.13;;
16963;SDS011;8598;50.508;10.436;2023-08-24T10:38:51;3.73;;;2.67;;
16963;SDS011;8598;50.508;10.436;2023-08-24T10:41:22;6.70;;;3.17;;
16963;SDS011;8598;50.508;10.436;2023-08-24T10:43:52;7.27;;;2.67;;
16963;SDS011;8598;50.508;10.436;2023-08-24T10:46:34;5.70;;;3.23;;
16963;SDS011;8598;50.508;10.436;2023-08-24T10:49:04;3.90;;;3.00;;
16963;SDS011;8598;50.508;10.436;2023-08-24T10:51:34;7.13;;;2.90;;
16963;SDS011;8598;50.508;10.436;2023-08-24T10:54:09;9.40;;;2.60;;
16963;SDS011;8598;50.508;10.436;2023-08-24T10:56:36;4.07;;;2.60;;
16963;SDS011;8598;50.508;10.436;2023-08-24T10:59:11;10.13;;;3.00;;
16963;SDS011;8598;50.508;10.436;2023-08-24T11:01:39;7.07;;;2.60;;
16963;SDS011;8598;50.508;10.436;2023-08-24T11:04:08;5.27;;;2.60;;
16963;SDS011;8598;50.508;10.436;2023-08-24T11:06:50;5.53;;;2.50;;
16963;SDS011;8598;50.508;10.436;2023-08-24T11:09:18;6.17;;;2.40;;
16963;SDS011;8598;50.508;10.436;2023-08-24T11:11:55;7.53;;;2.63;;
16963;SDS011;8598;50.508;10.436;2023-08-24T11:14:22;8.33;;;2.60;;
16963;SDS011;8598;50.508;10.436;2023-08-24T11:16:51;5.20;;;3.07;;
16963;SDS011;8598;50.508;10.436;2023-08-24T11:19:20;3.23;;;2.60;;
16963;SDS011;8598;50.508;10.436;2023-08-24T11:21:46;9.03;;;2.80;;
16963;SDS011;8598;50.508;10.436;2023-08-24T11:24:13;5.33;;;2.43;;
16963;SDS011;8598;50.508;10.436;2023-08-24T11:26:41;3.97;;;2.37;;
16963;SDS011;8598;50.508;10.436;2023-08-24T11:29:09;6.87;;;2.70;;
16963;SDS011;8598;50.508;10.436;2023-08-24T11:31:36;4.40;;;2.47;;
16963;SDS011;8598;50.508;10.436;2023-08-24T11:34:03;5.33;;;2.30;;
16963;SDS011;8598;50.508;10.436;2023-08-24T11:36:31;4.10;;;2.50;;
16963;SDS011;8598;50.508;10.436;2023-08-24T11:39:13;3.50;;;2.13;;
16963;SDS011;8598;50.508;10.436;2023-08-24T11:41:41;5.23;;;2.27;;
16963;SDS011;8598;50.508;10.436;2023-08-24T11:44:09;7.63;;;2.70;;
16963;SDS011;8598;50.508;10.436;2023-08-24T11:46:36;4.17;;;2.50;;
16963;SDS011;8598;50.508;10.436;2023-08-24T11:49:04;4.77;;;2.30;;
16963;SDS011;8598;50.508;10.436;2023-08-24T11:51:32;4.27;;;2.77;;
16963;SDS011;8598;50.508;10.436;2023-08-24T11:54:00;2.67;;;2.47;;
16963;SDS011;8598;50.508;10.436;2023-08-24T11:56:27;2.53;;;2.20;;
16963;SDS011;8598;50.508;10.436;2023-08-24T11:58:54;8.07;;;2.60;;
16963;SDS011;8598;50.508;10.436;2023-08-24T12:01:22;8.03;;;2.33;;
16963;SDS011;8598;50.508;10.436;2023-08-24T12:03:49;4.60;;;2.73;;
16963;SDS011;8598;50.508;10.436;2023-08-24T12:06:16;2.77;;;2.20;;
16963;SDS011;8598;50.508;10.436;2023-08-24T12:08:46;5.07;;;2.30;;
16963;SDS011;8598;50.508;10.436;2023-08-24T12:11:14;4.23;;;2.30;;
16963;SDS011;8598;50.508;10.436;2023-08-24T12:13:45;3.23;;;1.97;;
16963;SDS011;8598;50.508;10.436;2023-08-24T12:16:15;6.07;;;2.60;;
16963;SDS011;8598;50.508;10.436;2023-08-24T12:18:49;6.77;;;2.50;;
16963;SDS011;8598;50.508;10.436;2023-08-24T12:21:17;11.60;;;2.97;;
16963;SDS011;8598;50.508;10.436;2023-08-24T12:23:55;13.23;;;3.20;;
16963;SDS011;8598;50.508;10.436;2023-08-24T12:26:23;10.40;;;3.23;;
16963;SDS011;8598;50.508;10.436;2023-08-24T12:28:50;5.27;;;2.40;;
16963;SDS011;8598;50.508;10.436;2023-08-24T12:31:17;3.97;;;2.13;;
16963;SDS011;8598;50.508;10.436;2023-08-24T12:33:44;2.83;;;2.33;;
16963;SDS011;8598;50.508;10.436;2023-08-24T12:36:11;7.40;;;2.73;;
16963;SDS011;8598;50.508;10.436;2023-08-24T12:38:38;12.83;;;3.30;;
16963;SDS011;8598;50.508;10.436;2023-08-24T12:41:09;2.60;;;2.10;;
16963;SDS011;8598;50.508;10.436;2023-08-24T12:43:35;8.60;;;2.90;;
16963;SDS011;8598;50.508;10.436;2023-08-24T12:46:02;11.53;;;2.73;;
16963;SDS011;8598;50.508;10.436;2023-08-24T12:48:29;7.37;;;2.53;;
16963;SDS011;8598;50.508;10.436;2023-08-24T12:50:55;21.83;;;4.00;;
16963;SDS011;8598;50.508;10.436;2023-08-24T12:53:22;10.50;;;3.13;;
16963;SDS011;8598;50.508;10.436;2023-08-24T12:55:49;5.10;;;2.37;;
16963;SDS011;8598;50.508;10.436;2023-08-24T12:58:17;5.63;;;2.80;;
16963;SDS011;8598;50.508;10.436;2023-08-24T13:00:45;5.80;;;2.47;;
16963;SDS011;8598;50.508;10.436;2023-08-24T13:03:12;8.60;;;2.50;;
16963;SDS011;8598;50.508;10.436;2023-08-24T13:05:39;3.27;;;2.17;;
16963;SDS011;8598;50.508;10.436;2023-08-24T13:08:05;3.83;;;2.63;;
16963;SDS011;8598;50.508;10.436;2023-08-24T13:10:32;5.47;;;2.43;;
16963;SDS011;8598;50.508;10.436;2023-08-24T13:12:59;7.60;;;2.50;;
16963;SDS011;8598;50.508;10.436;2023-08-24T13:15:27;20.37;;;3.20;;
16963;SDS011;8598;50.508;10.436;2023-08-24T13:17:54;11.37;;;2.63;;
16963;SDS011;8598;50.508;10.436;2023-08-24T13:20:21;15.03;;;2.77;;
16963;SDS011;8598;50.508;10.436;2023-08-24T13:22:48;6.03;;;2.83;;
16963;SDS011;8598;50.508;10.436;2023-08-24T13:25:15;3.97;;;2.43;;
16963;SDS011;8598;50.508;10.436;2023-08-24T13:27:41;5.13;;;2.70;;
16963;SDS011;8598;50.508;10.436;2023-08-24T13:30:08;5.83;;;2.57;;
16963;SDS011;8598;50.508;10.436;2023-08-24T13:32:37;5.97;;;2.87;;
16963;SDS011;8598;50.508;10.436;2023-08-24T13:35:04;3.80;;;2.70;;
16963;SDS011;8598;50.508;10.436;2023-08-24T13:37:31;7.43;;;3.10;;
16963;SDS011;8598;50.508;10.436;2023-08-24T13:39:58;6.20;;;2.90;;
16963;SDS011;8598;50.508;10.436;2023-08-24T13:42:25;3.90;;;2.50;;
16963;SDS011;8598;50.508;10.436;2023-08-24T13:44:51;5.70;;;2.90;;
16963;SDS011;8598;50.508;10.436;2023-08-24T13:47:18;6.67;;;2.60;;
16963;SDS011;8598;50.508;10.436;2023-08-24T13:49:47;13.83;;;2.93;;
16963;SDS011;8598;50.508;10.436;2023-08-24T13:52:15;6.00;;;2.67;;
16963;SDS011;8598;50.508;10.436;2023-08-24T13:54:44;6.53;;;2.93;;
16963;SDS011;8598;50.508;10.436;2023-08-24T13:57:10;8.70;;;3.13;;
16963;SDS011;8598;50.508;10.436;2023-08-24T13:59:37;10.33;;;2.70;;
16963;SDS011;8598;50.508;10.436;2023-08-24T14:02:04;4.70;;;2.53;;
16963;SDS011;8598;50.508;10.436;2023-08-24T14:04:31;4.30;;;2.63;;
16963;SDS011;8598;50.508;10.436;2023-08-24T14:06:59;9.40;;;2.97;;
16963;SDS011;8598;50.508;10.436;2023-08-24T14:09:26;13.10;;;2.87;;
16963;SDS011;8598;50.508;10.436;2023-08-24T14:11:53;11.93;;;3.40;;
16963;SDS011;8598;50.508;10.436;2023-08-24T14:14:20;6.37;;;3.13;;
16963;SDS011;8598;50.508;10.436;2023-08-24T14:16:48;4.70;;;2.57;;
16963;SDS011;8598;50.508;10.436;2023-08-24T14:19:20;3.47;;;3.07;;
16963;SDS011;8598;50.508;10.436;2023-08-24T14:21:46;10.70;;;3.20;;
16963;SDS011;8598;50.508;10.436;2023-08-24T14:24:14;7.27;;;2.87;;
16963;SDS011;8598;50.508;10.436;2023-08-24T14:26:41;7.53;;;2.87;;
16963;SDS011;8598;50.508;10.436;2023-08-24T14:29:11;4.87;;;2.80;;
16963;SDS011;8598;50.508;10.436;2023-08-24T14:31:38;7.67;;;2.67;;
16963;SDS011;8598;50.508;10.436;2023-08-24T14:34:04;7.80;;;2.77;;
16963;SDS011;8598;50.508;10.436;2023-08-24T14:36:31;24.93;;;3.73;;
16963;SDS011;8598;50.508;10.436;2023-08-24T14:38:58;24.77;;;4.10;;
16963;SDS011;8598;50.508;10.436;2023-08-24T14:41:26;20.80;;;3.30;;
16963;SDS011;8598;50.508;10.436;2023-08-24T14:43:53;8.87;;;3.20;;
16963;SDS011;8598;50.508;10.436;2023-08-24T14:46:19;4.33;;;2.63;;